Погода Старое Камынинона неделю

Смоленская область, Россия

21 - 27 мая
  • 21мая
    Сегодня
    +10°
    +25°
    Пасмурно, дожди с грозами
    ВремяПогодаТемператураВлажностьДавлениеВетер, м/сВероятность осадков
    00:00Ясно и безоблачно+12°C88 %742 мм1.7 м/с2 %
    03:00Ясно и безоблачно+10°C93 %743 мм1.4 м/с2 %
    06:00Ясно и безоблачно+11°C93 %743 мм1.8 м/с2 %
    09:00Ясно и безоблачно+19°C70 %744 мм0.9 м/с2 %
    12:00Практически безоблачно+23°C54 %744 мм1.4 м/с2 %
    15:00Пасмурно, дожди с грозами+24°C50 %744 мм2.2 м/с37 %
    18:00Небольшая облачность, ливень+21°C69 %744 мм0.9 м/с55 %
    21:00Небольшая облачность+18°C81 %744 мм1.2 м/с7 %
  • 22мая
    Среда
    +8°
    +23°
    Практически безоблачно
    ВремяПогодаТемператураВлажностьДавлениеВетер, м/сВероятность осадков
    00:00Ясно и безоблачно+12°C96 %744 мм2.1 м/с2 %
    03:00Ясно и безоблачно+10°C99 %744 мм1.7 м/с2 %
    06:00Практически безоблачно+11°C89 %745 мм2.7 м/с2 %
    09:00Ясно и безоблачно+17°C75 %746 мм2.6 м/с2 %
    12:00Практически безоблачно+21°C58 %746 мм3.5 м/с10 %
    15:00Практически безоблачно+22°C46 %746 мм3.5 м/с21 %
    18:00Ясно и безоблачно+22°C41 %746 мм4.5 м/с17 %
    21:00Ясно и безоблачно+17°C51 %746 мм3.7 м/с3 %
  • 23мая
    Четверг
    +6°
    +21°
    Ясно и безоблачно
    ВремяПогодаТемператураВлажностьДавлениеВетер, м/сВероятность осадков
    00:00Ясно и безоблачно+13°C54 %747 мм4.2 м/с2 %
    03:00Ясно и безоблачно+10°C63 %748 мм3.8 м/с2 %
    06:00Ясно и безоблачно+9°C66 %749 мм3.7 м/с2 %
    09:00Ясно и безоблачно+15°C53 %750 мм4.1 м/с2 %
    12:00Ясно и безоблачно+19°C36 %751 мм5.2 м/с2 %
    15:00Ясно и безоблачно+20°C34 %751 мм4.8 м/с2 %
    18:00Ясно и безоблачно+20°C36 %750 мм4.8 м/с2 %
    21:00Ясно и безоблачно+15°C45 %751 мм3.6 м/с2 %
  • 24мая
    Пятница
    +7°
    +21°
    Ясно и безоблачно
    ВремяПогодаТемператураВлажностьДавлениеВетер, м/сВероятность осадков
    00:00Ясно и безоблачно+10°C53 %752 мм3.2 м/с2 %
    03:00Ясно и безоблачно+7°C61 %752 мм3.1 м/с2 %
    06:00Ясно и безоблачно+8°C63 %753 мм3.1 м/с2 %
    09:00Ясно и безоблачно+15°C43 %754 мм4.2 м/с2 %
    12:00Ясно и безоблачно+19°C36 %754 мм4.1 м/с2 %
    15:00Ясно и безоблачно+20°C34 %754 мм3.8 м/с2 %
    18:00Ясно и безоблачно+21°C37 %753 мм3.7 м/с2 %
    21:00Ясно и безоблачно+15°C57 %753 мм2.9 м/с2 %
  • 25мая
    Суббота
    +9°
    +24°
    Практически безоблачно
    ВремяПогодаТемператураВлажностьДавлениеВетер, м/сВероятность осадков
    00:00Ясно и безоблачно+10°C68 %753 мм3.2 м/с2 %
    03:00Ясно и безоблачно+8°C75 %753 мм2.6 м/с2 %
    06:00Ясно и безоблачно+8°C76 %753 мм2.6 м/с2 %
    09:00Практически безоблачно+16°C56 %753 мм2.5 м/с2 %
    12:00Небольшая облачность+21°C37 %753 мм3.1 м/с2 %
    15:00Практически безоблачно+23°C33 %752 мм2.9 м/с2 %
    18:00Практически безоблачно+23°C36 %751 мм2.4 м/с2 %
    21:00Ясно и безоблачно+17°C58 %750 мм2.7 м/с2 %
Мы используем cookies
Соглашаюсь